sensor_id;sensor_type;location;lat;lon;timestamp;P1;durP1;ratioP1;P2;durP2;ratioP2
37297;SDS011;30517;51.932;4.278;2023-12-29T00:00:52;5.32;;;1.50;;
37297;SDS011;30517;51.932;4.278;2023-12-29T00:03:33;5.43;;;1.55;;
37297;SDS011;30517;51.932;4.278;2023-12-29T00:06:16;3.60;;;1.35;;
37297;SDS011;30517;51.932;4.278;2023-12-29T00:08:56;5.72;;;1.60;;
37297;SDS011;30517;51.932;4.278;2023-12-29T00:11:38;6.25;;;1.35;;
37297;SDS011;30517;51.932;4.278;2023-12-29T00:14:19;8.25;;;1.90;;
37297;SDS011;30517;51.932;4.278;2023-12-29T00:17:00;7.30;;;2.17;;
37297;SDS011;30517;51.932;4.278;2023-12-29T00:19:41;3.67;;;1.73;;
37297;SDS011;30517;51.932;4.278;2023-12-29T00:22:22;5.40;;;1.33;;
37297;SDS011;30517;51.932;4.278;2023-12-29T00:25:04;8.70;;;1.60;;
37297;SDS011;30517;51.932;4.278;2023-12-29T00:27:45;4.65;;;1.30;;
37297;SDS011;30517;51.932;4.278;2023-12-29T00:30:26;6.10;;;1.33;;
37297;SDS011;30517;51.932;4.278;2023-12-29T00:33:08;6.25;;;1.40;;
37297;SDS011;30517;51.932;4.278;2023-12-29T00:35:49;3.78;;;1.25;;
37297;SDS011;30517;51.932;4.278;2023-12-29T00:38:30;7.68;;;1.77;;
37297;SDS011;30517;51.932;4.278;2023-12-29T00:41:11;5.32;;;1.52;;
37297;SDS011;30517;51.932;4.278;2023-12-29T00:43:52;5.05;;;1.60;;
37297;SDS011;30517;51.932;4.278;2023-12-29T00:46:32;3.25;;;1.25;;
37297;SDS011;30517;51.932;4.278;2023-12-29T00:49:13;5.88;;;1.48;;
37297;SDS011;30517;51.932;4.278;2023-12-29T00:51:54;6.28;;;1.50;;
37297;SDS011;30517;51.932;4.278;2023-12-29T00:54:35;5.45;;;1.40;;
37297;SDS011;30517;51.932;4.278;2023-12-29T00:57:16;5.15;;;1.40;;
37297;SDS011;30517;51.932;4.278;2023-12-29T00:59:57;7.78;;;1.83;;
37297;SDS011;30517;51.932;4.278;2023-12-29T01:02:40;5.63;;;1.42;;
37297;SDS011;30517;51.932;4.278;2023-12-29T01:05:21;9.20;;;1.50;;
37297;SDS011;30517;51.932;4.278;2023-12-29T01:08:03;5.50;;;1.92;;
37297;SDS011;30517;51.932;4.278;2023-12-29T01:10:44;6.15;;;1.52;;
37297;SDS011;30517;51.932;4.278;2023-12-29T01:13:25;7.13;;;1.80;;
37297;SDS011;30517;51.932;4.278;2023-12-29T01:16:06;6.05;;;1.33;;
37297;SDS011;30517;51.932;4.278;2023-12-29T01:18:46;3.33;;;0.98;;
37297;SDS011;30517;51.932;4.278;2023-12-29T01:21:30;7.63;;;1.10;;
37297;SDS011;30517;51.932;4.278;2023-12-29T01:24:13;3.30;;;1.15;;
37297;SDS011;30517;51.932;4.278;2023-12-29T01:26:55;7.03;;;1.85;;
37297;SDS011;30517;51.932;4.278;2023-12-29T01:29:36;6.85;;;1.77;;
37297;SDS011;30517;51.932;4.278;2023-12-29T01:32:17;11.30;;;1.63;;
37297;SDS011;30517;51.932;4.278;2023-12-29T01:34:58;6.53;;;1.73;;
37297;SDS011;30517;51.932;4.278;2023-12-29T01:37:39;5.18;;;1.58;;
37297;SDS011;30517;51.932;4.278;2023-12-29T01:40:19;6.03;;;1.35;;
37297;SDS011;30517;51.932;4.278;2023-12-29T01:43:00;9.85;;;1.80;;
37297;SDS011;30517;51.932;4.278;2023-12-29T01:45:41;6.95;;;1.67;;
37297;SDS011;30517;51.932;4.278;2023-12-29T01:48:22;6.95;;;1.52;;
37297;SDS011;30517;51.932;4.278;2023-12-29T01:51:04;7.35;;;1.80;;
37297;SDS011;30517;51.932;4.278;2023-12-29T01:53:45;5.88;;;1.45;;
37297;SDS011;30517;51.932;4.278;2023-12-29T01:56:26;5.40;;;1.60;;
37297;SDS011;30517;51.932;4.278;2023-12-29T01:59:07;5.95;;;1.40;;
37297;SDS011;30517;51.932;4.278;2023-12-29T02:01:48;6.25;;;1.35;;
37297;SDS011;30517;51.932;4.278;2023-12-29T02:04:29;6.70;;;1.85;;
37297;SDS011;30517;51.932;4.278;2023-12-29T02:07:11;6.90;;;1.48;;
37297;SDS011;30517;51.932;4.278;2023-12-29T02:09:52;7.35;;;1.67;;
37297;SDS011;30517;51.932;4.278;2023-12-29T02:12:34;7.90;;;1.38;;
37297;SDS011;30517;51.932;4.278;2023-12-29T02:15:18;5.68;;;1.73;;
37297;SDS011;30517;51.932;4.278;2023-12-29T02:18:03;6.57;;;2.17;;
37297;SDS011;30517;51.932;4.278;2023-12-29T02:20:46;6.20;;;1.52;;
37297;SDS011;30517;51.932;4.278;2023-12-29T02:23:27;3.83;;;1.48;;
37297;SDS011;30517;51.932;4.278;2023-12-29T02:26:09;9.27;;;1.98;;
37297;SDS011;30517;51.932;4.278;2023-12-29T02:28:56;7.15;;;1.42;;
37297;SDS011;30517;51.932;4.278;2023-12-29T02:31:43;6.25;;;1.83;;
37297;SDS011;30517;51.932;4.278;2023-12-29T02:34:30;5.93;;;1.60;;
37297;SDS011;30517;51.932;4.278;2023-12-29T02:37:12;5.53;;;1.40;;
37297;SDS011;30517;51.932;4.278;2023-12-29T02:39:55;6.22;;;1.67;;
37297;SDS011;30517;51.932;4.278;2023-12-29T02:42:38;7.90;;;1.83;;
37297;SDS011;30517;51.932;4.278;2023-12-29T02:45:18;8.43;;;2.10;;
37297;SDS011;30517;51.932;4.278;2023-12-29T02:47:59;5.75;;;1.27;;
37297;SDS011;30517;51.932;4.278;2023-12-29T02:50:40;8.13;;;1.98;;
37297;SDS011;30517;51.932;4.278;2023-12-29T02:53:21;8.77;;;1.70;;
37297;SDS011;30517;51.932;4.278;2023-12-29T02:56:02;13.85;;;2.60;;
37297;SDS011;30517;51.932;4.278;2023-12-29T02:58:43;12.63;;;2.55;;
37297;SDS011;30517;51.932;4.278;2023-12-29T03:01:25;7.30;;;1.92;;
37297;SDS011;30517;51.932;4.278;2023-12-29T03:04:08;15.33;;;2.97;;
37297;SDS011;30517;51.932;4.278;2023-12-29T03:06:50;8.43;;;2.55;;
37297;SDS011;30517;51.932;4.278;2023-12-29T03:09:31;10.45;;;2.00;;
37297;SDS011;30517;51.932;4.278;2023-12-29T03:12:11;10.48;;;2.70;;
37297;SDS011;30517;51.932;4.278;2023-12-29T03:14:52;13.95;;;2.42;;
37297;SDS011;30517;51.932;4.278;2023-12-29T03:17:33;8.23;;;1.90;;
37297;SDS011;30517;51.932;4.278;2023-12-29T03:20:14;9.43;;;3.00;;
37297;SDS011;30517;51.932;4.278;2023-12-29T03:22:55;11.05;;;2.72;;
37297;SDS011;30517;51.932;4.278;2023-12-29T03:25:36;11.70;;;2.45;;
37297;SDS011;30517;51.932;4.278;2023-12-29T03:28:16;10.07;;;2.30;;
37297;SDS011;30517;51.932;4.278;2023-12-29T03:30:57;14.65;;;2.72;;
37297;SDS011;30517;51.932;4.278;2023-12-29T03:33:38;9.80;;;2.30;;
37297;SDS011;30517;51.932;4.278;2023-12-29T03:36:20;10.30;;;2.53;;
37297;SDS011;30517;51.932;4.278;2023-12-29T03:39:00;12.00;;;2.53;;
37297;SDS011;30517;51.932;4.278;2023-12-29T03:41:44;11.52;;;3.13;;
37297;SDS011;30517;51.932;4.278;2023-12-29T03:44:25;15.60;;;2.53;;
37297;SDS011;30517;51.932;4.278;2023-12-29T03:47:06;10.20;;;1.90;;
37297;SDS011;30517;51.932;4.278;2023-12-29T03:49:47;12.00;;;3.03;;
37297;SDS011;30517;51.932;4.278;2023-12-29T03:52:28;13.57;;;2.70;;
37297;SDS011;30517;51.932;4.278;2023-12-29T03:55:08;12.75;;;2.45;;
37297;SDS011;30517;51.932;4.278;2023-12-29T03:57:51;12.57;;;3.20;;
37297;SDS011;30517;51.932;4.278;2023-12-29T04:00:31;12.85;;;3.35;;
37297;SDS011;30517;51.932;4.278;2023-12-29T04:03:12;9.52;;;2.40;;
37297;SDS011;30517;51.932;4.278;2023-12-29T04:05:53;10.68;;;2.22;;
37297;SDS011;30517;51.932;4.278;2023-12-29T04:08:34;8.32;;;2.03;;
37297;SDS011;30517;51.932;4.278;2023-12-29T04:11:16;14.15;;;2.58;;
37297;SDS011;30517;51.932;4.278;2023-12-29T04:13:57;14.55;;;3.15;;
37297;SDS011;30517;51.932;4.278;2023-12-29T04:16:38;14.25;;;2.90;;
37297;SDS011;30517;51.932;4.278;2023-12-29T04:19:19;13.52;;;2.80;;
37297;SDS011;30517;51.932;4.278;2023-12-29T04:22:00;11.73;;;2.92;;
37297;SDS011;30517;51.932;4.278;2023-12-29T04:24:40;10.75;;;2.55;;
37297;SDS011;30517;51.932;4.278;2023-12-29T04:27:21;15.88;;;3.15;;
37297;SDS011;30517;51.932;4.278;2023-12-29T04:30:02;19.73;;;3.67;;
37297;SDS011;30517;51.932;4.278;2023-12-29T04:32:44;14.73;;;2.72;;
37297;SDS011;30517;51.932;4.278;2023-12-29T04:35:25;10.95;;;2.90;;
37297;SDS011;30517;51.932;4.278;2023-12-29T04:38:05;15.75;;;3.92;;
37297;SDS011;30517;51.932;4.278;2023-12-29T04:40:46;17.60;;;2.92;;
37297;SDS011;30517;51.932;4.278;2023-12-29T04:43:27;13.43;;;2.40;;
37297;SDS011;30517;51.932;4.278;2023-12-29T04:46:08;16.35;;;2.85;;
37297;SDS011;30517;51.932;4.278;2023-12-29T04:48:49;16.42;;;3.17;;
37297;SDS011;30517;51.932;4.278;2023-12-29T04:51:30;15.18;;;2.95;;
37297;SDS011;30517;51.932;4.278;2023-12-29T04:54:10;12.25;;;2.60;;
37297;SDS011;30517;51.932;4.278;2023-12-29T04:56:51;14.50;;;3.08;;
37297;SDS011;30517;51.932;4.278;2023-12-29T04:59:32;14.82;;;3.35;;
37297;SDS011;30517;51.932;4.278;2023-12-29T05:02:13;15.13;;;2.90;;
37297;SDS011;30517;51.932;4.278;2023-12-29T05:04:54;15.45;;;3.13;;
37297;SDS011;30517;51.932;4.278;2023-12-29T05:07:35;18.92;;;3.17;;
37297;SDS011;30517;51.932;4.278;2023-12-29T05:10:16;13.57;;;3.08;;
37297;SDS011;30517;51.932;4.278;2023-12-29T05:12:56;13.45;;;2.95;;
37297;SDS011;30517;51.932;4.278;2023-12-29T05:15:37;10.63;;;2.22;;
37297;SDS011;30517;51.932;4.278;2023-12-29T05:18:18;17.38;;;3.50;;
37297;SDS011;30517;51.932;4.278;2023-12-29T05:20:59;13.85;;;3.10;;
37297;SDS011;30517;51.932;4.278;2023-12-29T05:23:40;13.55;;;3.65;;
37297;SDS011;30517;51.932;4.278;2023-12-29T05:26:21;14.27;;;3.00;;
37297;SDS011;30517;51.932;4.278;2023-12-29T05:29:02;12.88;;;2.80;;
37297;SDS011;30517;51.932;4.278;2023-12-29T05:31:43;10.38;;;3.10;;
37297;SDS011;30517;51.932;4.278;2023-12-29T05:34:24;19.70;;;2.65;;
37297;SDS011;30517;51.932;4.278;2023-12-29T05:37:05;12.45;;;2.67;;
37297;SDS011;30517;51.932;4.278;2023-12-29T05:39:45;6.35;;;2.00;;
37297;SDS011;30517;51.932;4.278;2023-12-29T05:42:26;10.85;;;2.42;;
37297;SDS011;30517;51.932;4.278;2023-12-29T05:45:07;17.13;;;3.58;;
37297;SDS011;30517;51.932;4.278;2023-12-29T05:47:48;17.38;;;2.63;;
37297;SDS011;30517;51.932;4.278;2023-12-29T05:50:29;15.43;;;3.33;;
37297;SDS011;30517;51.932;4.278;2023-12-29T05:53:10;15.50;;;3.00;;
37297;SDS011;30517;51.932;4.278;2023-12-29T05:55:51;14.15;;;2.22;;
37297;SDS011;30517;51.932;4.278;2023-12-29T05:58:32;12.32;;;2.78;;
37297;SDS011;30517;51.932;4.278;2023-12-29T06:01:13;14.00;;;2.67;;
37297;SDS011;30517;51.932;4.278;2023-12-29T06:03:54;11.57;;;2.33;;
37297;SDS011;30517;51.932;4.278;2023-12-29T06:06:35;12.95;;;2.75;;
37297;SDS011;30517;51.932;4.278;2023-12-29T06:09:18;13.38;;;3.33;;
37297;SDS011;30517;51.932;4.278;2023-12-29T06:11:59;11.77;;;2.58;;
37297;SDS011;30517;51.932;4.278;2023-12-29T06:14:40;12.88;;;2.25;;
37297;SDS011;30517;51.932;4.278;2023-12-29T06:17:21;9.73;;;1.88;;
37297;SDS011;30517;51.932;4.278;2023-12-29T06:20:02;8.18;;;2.25;;
37297;SDS011;30517;51.932;4.278;2023-12-29T06:25:26;9.80;;;2.67;;
37297;SDS011;30517;51.932;4.278;2023-12-29T06:28:07;7.60;;;1.77;;
37297;SDS011;30517;51.932;4.278;2023-12-29T06:30:49;12.85;;;3.38;;
37297;SDS011;30517;51.932;4.278;2023-12-29T06:33:29;7.55;;;1.80;;
37297;SDS011;30517;51.932;4.278;2023-12-29T06:36:11;8.93;;;2.53;;
37297;SDS011;30517;51.932;4.278;2023-12-29T06:38:52;11.18;;;2.03;;
37297;SDS011;30517;51.932;4.278;2023-12-29T06:41:34;8.23;;;1.88;;
37297;SDS011;30517;51.932;4.278;2023-12-29T06:44:15;8.23;;;1.98;;
37297;SDS011;30517;51.932;4.278;2023-12-29T06:46:55;16.88;;;2.65;;
37297;SDS011;30517;51.932;4.278;2023-12-29T06:49:36;7.90;;;1.90;;
37297;SDS011;30517;51.932;4.278;2023-12-29T06:52:17;9.27;;;2.75;;
37297;SDS011;30517;51.932;4.278;2023-12-29T06:54:58;10.23;;;1.80;;
37297;SDS011;30517;51.932;4.278;2023-12-29T06:57:39;7.25;;;1.48;;
37297;SDS011;30517;51.932;4.278;2023-12-29T07:00:20;8.70;;;2.03;;
37297;SDS011;30517;51.932;4.278;2023-12-29T07:03:01;7.93;;;2.33;;
37297;SDS011;30517;51.932;4.278;2023-12-29T07:05:42;10.50;;;2.40;;
37297;SDS011;30517;51.932;4.278;2023-12-29T07:08:23;7.88;;;2.00;;
37297;SDS011;30517;51.932;4.278;2023-12-29T07:11:03;6.80;;;1.95;;
37297;SDS011;30517;51.932;4.278;2023-12-29T07:13:44;5.65;;;2.03;;
37297;SDS011;30517;51.932;4.278;2023-12-29T07:16:25;10.15;;;1.98;;
37297;SDS011;30517;51.932;4.278;2023-12-29T07:19:06;12.77;;;2.33;;
37297;SDS011;30517;51.932;4.278;2023-12-29T07:21:47;6.60;;;1.80;;
37297;SDS011;30517;51.932;4.278;2023-12-29T07:24:28;8.98;;;2.13;;
37297;SDS011;30517;51.932;4.278;2023-12-29T07:27:09;6.53;;;1.70;;
37297;SDS011;30517;51.932;4.278;2023-12-29T07:29:49;7.00;;;1.65;;
37297;SDS011;30517;51.932;4.278;2023-12-29T07:32:30;7.38;;;1.60;;
37297;SDS011;30517;51.932;4.278;2023-12-29T07:35:11;6.35;;;1.50;;
37297;SDS011;30517;51.932;4.278;2023-12-29T07:37:55;4.75;;;1.30;;
37297;SDS011;30517;51.932;4.278;2023-12-29T07:40:36;7.18;;;1.70;;
37297;SDS011;30517;51.932;4.278;2023-12-29T07:43:17;2.33;;;0.95;;
37297;SDS011;30517;51.932;4.278;2023-12-29T07:45:58;5.20;;;1.85;;
37297;SDS011;30517;51.932;4.278;2023-12-29T07:48:39;4.35;;;1.20;;
37297;SDS011;30517;51.932;4.278;2023-12-29T07:51:19;8.35;;;1.95;;
37297;SDS011;30517;51.932;4.278;2023-12-29T07:54:00;7.55;;;1.77;;
37297;SDS011;30517;51.932;4.278;2023-12-29T07:56:41;4.15;;;1.40;;
37297;SDS011;30517;51.932;4.278;2023-12-29T07:59:22;8.32;;;1.65;;
37297;SDS011;30517;51.932;4.278;2023-12-29T08:02:03;6.88;;;1.42;;
37297;SDS011;30517;51.932;4.278;2023-12-29T08:04:44;5.43;;;1.27;;
37297;SDS011;30517;51.932;4.278;2023-12-29T08:07:28;5.53;;;1.27;;
37297;SDS011;30517;51.932;4.278;2023-12-29T08:10:09;4.93;;;1.27;;
37297;SDS011;30517;51.932;4.278;2023-12-29T08:12:50;7.32;;;1.42;;
37297;SDS011;30517;51.932;4.278;2023-12-29T08:15:31;8.35;;;1.67;;
37297;SDS011;30517;51.932;4.278;2023-12-29T08:18:12;6.55;;;1.85;;
37297;SDS011;30517;51.932;4.278;2023-12-29T08:20:53;6.38;;;1.40;;
37297;SDS011;30517;51.932;4.278;2023-12-29T08:23:34;5.32;;;1.42;;
37297;SDS011;30517;51.932;4.278;2023-12-29T08:26:15;7.05;;;1.10;;
37297;SDS011;30517;51.932;4.278;2023-12-29T08:28:56;4.15;;;1.25;;
37297;SDS011;30517;51.932;4.278;2023-12-29T08:31:36;7.13;;;1.33;;
37297;SDS011;30517;51.932;4.278;2023-12-29T08:34:17;6.32;;;1.20;;
37297;SDS011;30517;51.932;4.278;2023-12-29T08:36:58;2.88;;;1.00;;
37297;SDS011;30517;51.932;4.278;2023-12-29T08:39:39;4.68;;;1.50;;
37297;SDS011;30517;51.932;4.278;2023-12-29T08:42:21;4.22;;;1.45;;
37297;SDS011;30517;51.932;4.278;2023-12-29T08:45:02;4.75;;;1.10;;
37297;SDS011;30517;51.932;4.278;2023-12-29T08:47:43;1.52;;;0.65;;
37297;SDS011;30517;51.932;4.278;2023-12-29T08:50:24;3.25;;;1.08;;
37297;SDS011;30517;51.932;4.278;2023-12-29T08:53:05;4.03;;;1.20;;
37297;SDS011;30517;51.932;4.278;2023-12-29T08:55:46;7.05;;;1.63;;
37297;SDS011;30517;51.932;4.278;2023-12-29T08:58:27;4.05;;;1.13;;
37297;SDS011;30517;51.932;4.278;2023-12-29T09:01:07;4.45;;;1.23;;
37297;SDS011;30517;51.932;4.278;2023-12-29T09:03:48;3.67;;;1.00;;
37297;SDS011;30517;51.932;4.278;2023-12-29T09:06:29;5.93;;;2.50;;
37297;SDS011;30517;51.932;4.278;2023-12-29T09:09:10;10.30;;;4.28;;
37297;SDS011;30517;51.932;4.278;2023-12-29T09:11:52;6.38;;;2.97;;
37297;SDS011;30517;51.932;4.278;2023-12-29T09:14:33;5.32;;;3.25;;
37297;SDS011;30517;51.932;4.278;2023-12-29T09:17:14;7.88;;;3.75;;
37297;SDS011;30517;51.932;4.278;2023-12-29T09:19:55;11.10;;;3.38;;
37297;SDS011;30517;51.932;4.278;2023-12-29T09:22:36;11.75;;;4.28;;
37297;SDS011;30517;51.932;4.278;2023-12-29T09:25:18;10.07;;;5.40;;
37297;SDS011;30517;51.932;4.278;2023-12-29T09:27:58;10.85;;;6.35;;
37297;SDS011;30517;51.932;4.278;2023-12-29T09:30:39;9.90;;;5.38;;
37297;SDS011;30517;51.932;4.278;2023-12-29T09:33:23;8.80;;;4.60;;
37297;SDS011;30517;51.932;4.278;2023-12-29T09:36:06;12.25;;;5.57;;
37297;SDS011;30517;51.932;4.278;2023-12-29T09:38:47;14.75;;;6.03;;
37297;SDS011;30517;51.932;4.278;2023-12-29T09:41:28;10.15;;;6.35;;
37297;SDS011;30517;51.932;4.278;2023-12-29T09:44:13;9.13;;;5.72;;
37297;SDS011;30517;51.932;4.278;2023-12-29T09:49:38;11.63;;;5.90;;
37297;SDS011;30517;51.932;4.278;2023-12-29T09:52:21;10.63;;;5.75;;
37297;SDS011;30517;51.932;4.278;2023-12-29T09:55:02;10.85;;;5.35;;
37297;SDS011;30517;51.932;4.278;2023-12-29T09:57:44;9.25;;;5.38;;
37297;SDS011;30517;51.932;4.278;2023-12-29T10:03:09;10.88;;;4.80;;
37297;SDS011;30517;51.932;4.278;2023-12-29T10:05:51;11.77;;;6.32;;
37297;SDS011;30517;51.932;4.278;2023-12-29T10:08:37;11.73;;;5.15;;
37297;SDS011;30517;51.932;4.278;2023-12-29T10:11:22;10.27;;;5.65;;
37297;SDS011;30517;51.932;4.278;2023-12-29T10:14:14;15.57;;;6.30;;
37297;SDS011;30517;51.932;4.278;2023-12-29T10:17:05;13.77;;;4.88;;
37297;SDS011;30517;51.932;4.278;2023-12-29T10:19:53;12.82;;;5.32;;
37297;SDS011;30517;51.932;4.278;2023-12-29T10:23:06;12.57;;;4.90;;
37297;SDS011;30517;51.932;4.278;2023-12-29T10:25:53;8.75;;;4.60;;
37297;SDS011;30517;51.932;4.278;2023-12-29T10:28:34;8.90;;;4.47;;
37297;SDS011;30517;51.932;4.278;2023-12-29T10:31:15;10.80;;;4.40;;
37297;SDS011;30517;51.932;4.278;2023-12-29T10:37:08;13.45;;;3.63;;
37297;SDS011;30517;51.932;4.278;2023-12-29T10:39:56;13.63;;;4.10;;
37297;SDS011;30517;51.932;4.278;2023-12-29T10:42:39;14.95;;;3.08;;
37297;SDS011;30517;51.932;4.278;2023-12-29T10:45:32;11.35;;;3.10;;
37297;SDS011;30517;51.932;4.278;2023-12-29T10:48:21;13.73;;;3.45;;
37297;SDS011;30517;51.932;4.278;2023-12-29T10:51:04;12.90;;;3.30;;
37297;SDS011;30517;51.932;4.278;2023-12-29T10:53:46;12.35;;;2.83;;
37297;SDS011;30517;51.932;4.278;2023-12-29T10:56:36;15.40;;;2.50;;
37297;SDS011;30517;51.932;4.278;2023-12-29T10:59:17;14.38;;;3.03;;
37297;SDS011;30517;51.932;4.278;2023-12-29T11:02:00;15.73;;;2.85;;
37297;SDS011;30517;51.932;4.278;2023-12-29T11:04:43;16.90;;;3.05;;
37297;SDS011;30517;51.932;4.278;2023-12-29T11:07:31;16.55;;;3.35;;
37297;SDS011;30517;51.932;4.278;2023-12-29T11:10:16;11.27;;;3.00;;
37297;SDS011;30517;51.932;4.278;2023-12-29T11:12:57;14.73;;;3.00;;
37297;SDS011;30517;51.932;4.278;2023-12-29T11:15:45;9.80;;;2.33;;
37297;SDS011;30517;51.932;4.278;2023-12-29T11:18:26;11.05;;;3.30;;
37297;SDS011;30517;51.932;4.278;2023-12-29T11:21:08;11.85;;;2.55;;
37297;SDS011;30517;51.932;4.278;2023-12-29T11:23:52;12.80;;;2.55;;
37297;SDS011;30517;51.932;4.278;2023-12-29T11:26:33;14.75;;;2.92;;
37297;SDS011;30517;51.932;4.278;2023-12-29T11:29:14;7.75;;;2.33;;
37297;SDS011;30517;51.932;4.278;2023-12-29T11:31:56;16.45;;;3.45;;
37297;SDS011;30517;51.932;4.278;2023-12-29T11:34:42;7.47;;;2.35;;
37297;SDS011;30517;51.932;4.278;2023-12-29T11:37:32;11.15;;;2.58;;
37297;SDS011;30517;51.932;4.278;2023-12-29T11:40:36;12.07;;;2.50;;
37297;SDS011;30517;51.932;4.278;2023-12-29T11:43:25;10.70;;;2.45;;
37297;SDS011;30517;51.932;4.278;2023-12-29T11:46:07;12.95;;;2.90;;
37297;SDS011;30517;51.932;4.278;2023-12-29T11:48:58;10.85;;;2.60;;
37297;SDS011;30517;51.932;4.278;2023-12-29T11:51:44;6.32;;;2.10;;
37297;SDS011;30517;51.932;4.278;2023-12-29T11:54:29;8.80;;;1.90;;
37297;SDS011;30517;51.932;4.278;2023-12-29T11:57:10;8.20;;;1.77;;
37297;SDS011;30517;51.932;4.278;2023-12-29T11:59:50;9.88;;;2.63;;
37297;SDS011;30517;51.932;4.278;2023-12-29T12:02:35;10.60;;;2.53;;
37297;SDS011;30517;51.932;4.278;2023-12-29T12:05:44;9.48;;;2.20;;
37297;SDS011;30517;51.932;4.278;2023-12-29T12:08:33;11.57;;;2.53;;
37297;SDS011;30517;51.932;4.278;2023-12-29T12:14:17;9.77;;;1.70;;
37297;SDS011;30517;51.932;4.278;2023-12-29T12:20:13;11.15;;;2.28;;
37297;SDS011;30517;51.932;4.278;2023-12-29T12:22:58;8.18;;;1.70;;
37297;SDS011;30517;51.932;4.278;2023-12-29T12:25:40;9.43;;;2.13;;
37297;SDS011;30517;51.932;4.278;2023-12-29T12:28:22;7.80;;;1.73;;
37297;SDS011;30517;51.932;4.278;2023-12-29T12:31:07;6.20;;;1.50;;
37297;SDS011;30517;51.932;4.278;2023-12-29T12:33:55;10.57;;;2.35;;
37297;SDS011;30517;51.932;4.278;2023-12-29T12:36:42;7.25;;;2.08;;
37297;SDS011;30517;51.932;4.278;2023-12-29T12:39:37;7.20;;;1.60;;
37297;SDS011;30517;51.932;4.278;2023-12-29T12:42:20;10.70;;;2.05;;
37297;SDS011;30517;51.932;4.278;2023-12-29T12:45:12;5.30;;;1.40;;
37297;SDS011;30517;51.932;4.278;2023-12-29T12:48:11;13.20;;;2.28;;
37297;SDS011;30517;51.932;4.278;2023-12-29T12:50:54;10.25;;;2.33;;
37297;SDS011;30517;51.932;4.278;2023-12-29T12:53:40;8.65;;;1.80;;
37297;SDS011;30517;51.932;4.278;2023-12-29T12:56:22;11.45;;;2.03;;
37297;SDS011;30517;51.932;4.278;2023-12-29T12:59:07;10.00;;;2.10;;
37297;SDS011;30517;51.932;4.278;2023-12-29T13:01:48;7.20;;;1.60;;
37297;SDS011;30517;51.932;4.278;2023-12-29T13:04:29;7.25;;;1.73;;
37297;SDS011;30517;51.932;4.278;2023-12-29T13:07:10;7.15;;;1.40;;
37297;SDS011;30517;51.932;4.278;2023-12-29T13:09:51;7.85;;;1.85;;
37297;SDS011;30517;51.932;4.278;2023-12-29T13:12:33;5.30;;;1.40;;
37297;SDS011;30517;51.932;4.278;2023-12-29T13:15:14;11.07;;;2.15;;
37297;SDS011;30517;51.932;4.278;2023-12-29T13:17:55;12.50;;;2.17;;
37297;SDS011;30517;51.932;4.278;2023-12-29T13:20:48;8.88;;;1.70;;
37297;SDS011;30517;51.932;4.278;2023-12-29T13:23:30;6.82;;;2.03;;
37297;SDS011;30517;51.932;4.278;2023-12-29T13:26:12;12.63;;;2.72;;
37297;SDS011;30517;51.932;4.278;2023-12-29T13:28:54;14.57;;;1.92;;
37297;SDS011;30517;51.932;4.278;2023-12-29T13:31:35;9.05;;;1.83;;
37297;SDS011;30517;51.932;4.278;2023-12-29T13:37:22;13.55;;;2.33;;
37297;SDS011;30517;51.932;4.278;2023-12-29T13:40:13;11.20;;;2.00;;
37297;SDS011;30517;51.932;4.278;2023-12-29T13:42:58;11.40;;;2.60;;
37297;SDS011;30517;51.932;4.278;2023-12-29T13:45:43;12.18;;;2.47;;
37297;SDS011;30517;51.932;4.278;2023-12-29T13:48:25;10.63;;;2.28;;
37297;SDS011;30517;51.932;4.278;2023-12-29T13:51:08;9.45;;;2.17;;
37297;SDS011;30517;51.932;4.278;2023-12-29T13:53:49;9.57;;;1.98;;
37297;SDS011;30517;51.932;4.278;2023-12-29T13:56:37;7.35;;;1.83;;
37297;SDS011;30517;51.932;4.278;2023-12-29T13:59:28;19.45;;;3.45;;
37297;SDS011;30517;51.932;4.278;2023-12-29T14:02:23;12.15;;;2.65;;
37297;SDS011;30517;51.932;4.278;2023-12-29T14:13:25;15.13;;;2.55;;
37297;SDS011;30517;51.932;4.278;2023-12-29T14:16:07;12.07;;;3.08;;
37297;SDS011;30517;51.932;4.278;2023-12-29T14:18:55;7.93;;;1.80;;
37297;SDS011;30517;51.932;4.278;2023-12-29T14:21:37;10.25;;;2.13;;
37297;SDS011;30517;51.932;4.278;2023-12-29T14:24:19;9.30;;;2.30;;
37297;SDS011;30517;51.932;4.278;2023-12-29T14:29:52;10.98;;;2.80;;
37297;SDS011;30517;51.932;4.278;2023-12-29T14:32:33;6.22;;;1.73;;
37297;SDS011;30517;51.932;4.278;2023-12-29T14:35:14;7.80;;;1.88;;
37297;SDS011;30517;51.932;4.278;2023-12-29T14:37:55;9.73;;;2.40;;
37297;SDS011;30517;51.932;4.278;2023-12-29T14:40:36;9.15;;;2.00;;
37297;SDS011;30517;51.932;4.278;2023-12-29T14:43:18;7.22;;;1.88;;
37297;SDS011;30517;51.932;4.278;2023-12-29T14:45:59;8.18;;;1.75;;
37297;SDS011;30517;51.932;4.278;2023-12-29T14:48:40;8.52;;;1.92;;
37297;SDS011;30517;51.932;4.278;2023-12-29T14:51:21;8.88;;;2.30;;
37297;SDS011;30517;51.932;4.278;2023-12-29T14:54:02;10.75;;;2.25;;
37297;SDS011;30517;51.932;4.278;2023-12-29T14:56:43;6.50;;;1.90;;
37297;SDS011;30517;51.932;4.278;2023-12-29T14:59:24;9.57;;;1.95;;
37297;SDS011;30517;51.932;4.278;2023-12-29T15:02:05;8.82;;;1.80;;
37297;SDS011;30517;51.932;4.278;2023-12-29T15:04:47;9.20;;;2.10;;
37297;SDS011;30517;51.932;4.278;2023-12-29T15:07:29;14.57;;;2.90;;
37297;SDS011;30517;51.932;4.278;2023-12-29T15:10:10;13.38;;;1.80;;
37297;SDS011;30517;51.932;4.278;2023-12-29T15:12:51;8.30;;;1.60;;
37297;SDS011;30517;51.932;4.278;2023-12-29T15:15:32;7.80;;;1.92;;
37297;SDS011;30517;51.932;4.278;2023-12-29T15:18:13;8.80;;;2.00;;
37297;SDS011;30517;51.932;4.278;2023-12-29T15:20:54;10.95;;;1.92;;
37297;SDS011;30517;51.932;4.278;2023-12-29T15:23:36;10.95;;;1.88;;
37297;SDS011;30517;51.932;4.278;2023-12-29T15:26:17;10.77;;;2.10;;
37297;SDS011;30517;51.932;4.278;2023-12-29T15:28:58;4.47;;;1.17;;
37297;SDS011;30517;51.932;4.278;2023-12-29T15:31:42;4.53;;;1.10;;
37297;SDS011;30517;51.932;4.278;2023-12-29T15:34:27;8.40;;;2.30;;
37297;SDS011;30517;51.932;4.278;2023-12-29T15:37:08;6.30;;;1.80;;
37297;SDS011;30517;51.932;4.278;2023-12-29T15:39:50;5.55;;;1.42;;
37297;SDS011;30517;51.932;4.278;2023-12-29T15:42:30;5.35;;;1.40;;
37297;SDS011;30517;51.932;4.278;2023-12-29T15:45:11;10.05;;;2.05;;
37297;SDS011;30517;51.932;4.278;2023-12-29T15:47:53;9.73;;;2.08;;
37297;SDS011;30517;51.932;4.278;2023-12-29T15:50:34;9.48;;;1.60;;
37297;SDS011;30517;51.932;4.278;2023-12-29T15:53:14;13.15;;;1.85;;
37297;SDS011;30517;51.932;4.278;2023-12-29T15:55:55;6.85;;;1.67;;
37297;SDS011;30517;51.932;4.278;2023-12-29T15:58:36;9.05;;;1.83;;
37297;SDS011;30517;51.932;4.278;2023-12-29T16:01:23;10.60;;;1.70;;
37297;SDS011;30517;51.932;4.278;2023-12-29T16:04:07;7.70;;;2.05;;
37297;SDS011;30517;51.932;4.278;2023-12-29T16:06:48;4.95;;;1.60;;
37297;SDS011;30517;51.932;4.278;2023-12-29T16:09:29;6.85;;;1.95;;
37297;SDS011;30517;51.932;4.278;2023-12-29T16:12:10;7.85;;;1.80;;
37297;SDS011;30517;51.932;4.278;2023-12-29T16:14:50;5.68;;;1.40;;
37297;SDS011;30517;51.932;4.278;2023-12-29T16:17:32;5.35;;;1.13;;
37297;SDS011;30517;51.932;4.278;2023-12-29T16:20:13;6.18;;;1.88;;
37297;SDS011;30517;51.932;4.278;2023-12-29T16:22:55;9.75;;;2.10;;
37297;SDS011;30517;51.932;4.278;2023-12-29T16:25:36;7.53;;;1.42;;
37297;SDS011;30517;51.932;4.278;2023-12-29T16:28:17;7.43;;;1.60;;
37297;SDS011;30517;51.932;4.278;2023-12-29T16:30:57;4.95;;;1.70;;
37297;SDS011;30517;51.932;4.278;2023-12-29T16:33:39;6.15;;;1.35;;
37297;SDS011;30517;51.932;4.278;2023-12-29T16:36:21;9.35;;;1.85;;
37297;SDS011;30517;51.932;4.278;2023-12-29T16:39:02;5.40;;;1.50;;
37297;SDS011;30517;51.932;4.278;2023-12-29T16:41:43;5.00;;;1.42;;
37297;SDS011;30517;51.932;4.278;2023-12-29T16:44:24;3.13;;;1.10;;